Flight Track Log - Related Links

Times and Time Zones

All times are in EDT time to prevent confusion due to time zone crossing. See the ASA6 flight status page for this flight to view local times or setup timezone preferences in your user account.

Time Position Orientation Groundspeed Altitude Reporting Facility
EDT Latitude Longitude Course Direction KTS MPH feet Rate Location/Type
Wed 04:01:51 PM 33.9333 -118.4500 90° East 183 211 2,100  Level Southern California TRACON
Wed 04:02:23 PM 33.9097 -118.4864 232° Southwest 208 239 3,000 1,958 Climbing Los Angeles Center
Wed 04:03:26 PM 33.8483 -118.5156 202° Southwest 260 299 5,200 2,352 Climbing Los Angeles Center
Wed 04:04:28 PM 33.7664 -118.5181 181° South 282 325 7,900 2,613 Climbing Los Angeles Center
Wed 04:05:30 PM 33.6922 -118.4931 164° South 300 345 10,600 2,129 Climbing Los Angeles Center
Wed 04:06:32 PM 33.6556 -118.3864 112° Southeast 328 377 12,300 1,839 Climbing Los Angeles Center
Wed 04:07:00 PM 33.6333 -118.2091 90° East  Level FlightAware Approximate
Wed 04:07:34 PM 33.6439 -118.2550 96° East 369 425 14,400  Level Los Angeles Center
Wed 04:08:36 PM 33.6442 -118.1283 90° East 384 442 16,600 1,984 Climbing Los Angeles Center
Wed 04:09:38 PM 33.6450 -117.9975 90° East 394 453 18,500 1,887 Climbing Los Angeles Center
Wed 04:10:40 PM 33.6439 -117.8617 91° East 407 468 20,500 2,032 Climbing Los Angeles Center
Wed 04:11:42 PM 33.6439 -117.6944 90° East 418 481 22,700 1,728 Climbing Los Angeles Center
Wed 04:12:00 PM 33.6334 -117.6589 90° East  Level FlightAware Approximate
Wed 04:12:45 PM 33.6431 -117.5517 90° East 429 494 24,100  Level Los Angeles Center
Wed 04:13:47 PM 33.6417 -117.4031 91° East 442 509 25,500 1,210 Climbing Los Angeles Center
Wed 04:14:49 PM 33.6403 -117.2514 91° East 455 524 26,600 1,113 Climbing Los Angeles Center
Wed 04:15:51 PM 33.6394 -117.0939 90° East 470 541 27,800 1,194 Climbing Los Angeles Center
Wed 04:17:00 PM 33.6814 -116.9247 73° East  Level FlightAware Approximate
Wed 04:17:55 PM 33.7108 -116.7522 73° East 490 564 30,300  Level Los Angeles Center
Wed 04:18:57 PM 33.7503 -116.5972 73° East 487 560 31,600 1,161 Climbing Los Angeles Center
Wed 04:19:59 PM 33.7883 -116.4428 73° East 484 557 32,700 1,056 Climbing Los Angeles Center
Wed 04:21:02 PM 33.8261 -116.2900 73° East 479 551 33,800 1,008 Climbing Los Angeles Center
Wed 04:22:04 PM 33.8633 -116.1392 73° East 474 545 34,800 581 Climbing Los Angeles Center
Wed 04:23:06 PM 33.9078 -115.9600 73° East 466 536 35,000 97 Climbing Los Angeles Center
Wed 04:24:08 PM 33.9442 -115.8078 74° East 471 542 35,000  Level Los Angeles Center
Wed 04:25:10 PM 33.9814 -115.6547 74° East 476 548 35,000  Level Los Angeles Center
Wed 04:26:12 PM 34.0175 -115.5031 74° East 473 544 35,000  Level Los Angeles Center
Wed 04:27:26 PM 34.0542 -115.3489 74° East 477 549 35,000  Level Los Angeles Center
Wed 04:28:29 PM 34.0978 -115.1664 74° East 474 545 35,000  Level Los Angeles Center
Wed 04:29:31 PM 34.1419 -114.9836 74° East 473 544 35,000  Level Los Angeles Center
Wed 04:30:33 PM 34.1786 -114.8300 74° East 475 547 35,000  Level Los Angeles Center
Wed 04:31:35 PM 34.2136 -114.6747 75° East 480 552 35,000  Level Los Angeles Center
Wed 04:32:37 PM 34.2497 -114.5178 74° East 485 558 35,000  Level Los Angeles Center
Wed 04:33:56 PM 34.2997 -114.3050 74° East 482 555 35,000  Level Albuquerque Center
Wed 04:34:58 PM 34.3350 -114.1475 75° East 485 558 35,000  Level Albuquerque Center
Wed 04:36:00 PM 34.3711 -113.9917 74° East 484 557 35,000  Level Albuquerque Center
Wed 04:37:02 PM 34.4067 -113.8336 75° East 485 558 35,000  Level Albuquerque Center
Wed 04:38:04 PM 34.4497 -113.6447 74° East 486 559 35,000  Level Albuquerque Center
Wed 04:39:06 PM 34.4800 -113.5083 75° East 486 559 35,000  Level Albuquerque Center
Wed 04:40:08 PM 34.5139 -113.3519 75° East 484 557 35,000  Level Albuquerque Center
Wed 04:41:10 PM 34.5556 -113.1606 75° East 491 565 35,000  Level Albuquerque Center
Wed 04:42:12 PM 34.5900 -113.0042 75° East 488 562 35,000  Level Albuquerque Center
Wed 04:43:14 PM 34.6236 -112.8467 75° East 486 559 35,000  Level Albuquerque Center
Wed 04:44:16 PM 34.6575 -112.6892 75° East 489 563 35,000  Level Albuquerque Center
Wed 04:45:18 PM 34.6922 -112.5314 75° East 489 563 35,000  Level Albuquerque Center
Wed 04:46:20 PM 34.7147 -112.3353 82° East 491 565 35,000  Level Albuquerque Center
Wed 04:47:21 PM 34.7300 -112.1697 84° East 491 565 35,000  Level Albuquerque Center
Wed 04:48:24 PM 34.7447 -112.0039 84° East 492 566 35,000  Level Albuquerque Center
Wed 04:50:27 PM 34.7744 -111.6689 84° East 496 571 35,000  Level Albuquerque Center
Wed 04:51:29 PM 34.7892 -111.5011 84° East 498 573 35,000  Level Albuquerque Center
Wed 04:52:31 PM 34.8028 -111.3333 84° East 498 573 35,000  Level Albuquerque Center
Wed 04:53:33 PM 34.8203 -111.1328 84° East 497 572 35,000  Level Albuquerque Center
Wed 04:54:35 PM 34.8325 -110.9639 85° East 499 574 35,000  Level Albuquerque Center
Wed 04:55:37 PM 34.8453 -110.7961 85° East 499 574 35,000  Level Albuquerque Center
Wed 04:56:39 PM 34.8619 -110.6086 84° East 498 573 35,000  Level Albuquerque Center
Wed 04:57:41 PM 34.8750 -110.4489 84° East 497 572 35,000  Level Albuquerque Center
Wed 04:58:43 PM 34.8892 -110.2622 85° East 497 572 35,000  Level Albuquerque Center
Wed 04:59:45 PM 34.9014 -110.1011 85° East 499 574 35,000  Level Albuquerque Center
Wed 05:00:47 PM 34.9119 -109.9378 85° East 503 579 35,000  Level Albuquerque Center
Wed 05:01:49 PM 34.9250 -109.7497 85° East 502 578 35,000  Level Albuquerque Center
Wed 05:02:51 PM 34.9367 -109.5886 85° East 501 577 35,000  Level Albuquerque Center
Wed 05:03:53 PM 34.9492 -109.3983 85° East 504 580 35,000  Level Albuquerque Center
Wed 05:04:55 PM 34.9597 -109.2350 85° East 506 582 35,000  Level Albuquerque Center
Wed 05:05:57 PM 34.9714 -109.0450 86° East 506 582 35,000  Level Albuquerque Center
Wed 05:06:59 PM 34.9772 -108.8814 87° East 506 582 35,000  Level Albuquerque Center
Wed 05:08:01 PM 34.9856 -108.6917 87° East 505 581 35,000  Level Albuquerque Center
Wed 05:09:03 PM 34.9922 -108.5292 87° East 504 580 35,000  Level Albuquerque Center
Wed 05:10:05 PM 34.9986 -108.3389 88° East 504 580 35,000  Level Albuquerque Center
Wed 05:11:07 PM 35.0053 -108.1769 87° East 503 579 35,000  Level Albuquerque Center
Wed 05:12:09 PM 35.0117 -107.9864 88° East 504 580 35,000  Level Albuquerque Center
Wed 05:13:11 PM 35.0175 -107.8239 87° East 503 579 35,000  Level Albuquerque Center
Wed 05:14:13 PM 35.0217 -107.6636 88° East 502 578 35,000  Level Albuquerque Center
Wed 05:15:15 PM 35.0272 -107.4589 88° East 503 579 35,000  Level Albuquerque Center
Wed 05:16:17 PM 35.0317 -107.2872 88° East 506 582 35,000  Level Albuquerque Center
Wed 05:17:20 PM 35.0378 -107.1144 87° East 509 586 35,000  Level Albuquerque Center
Wed 05:18:22 PM 35.0414 -106.9211 89° East 511 588 35,000  Level Albuquerque Center
Wed 05:19:24 PM 35.0464 -106.7583 88° East 505 581 35,000  Level Albuquerque Center
Wed 05:20:26 PM 35.0575 -106.5661 86° East 506 582 35,000  Level Albuquerque Center
Wed 05:21:28 PM 35.0656 -106.4064 86° East 513 590 35,000  Level Albuquerque Center
Wed 05:22:30 PM 35.0753 -106.2367 86° East 504 580 35,000  Level Albuquerque Center
Wed 05:23:32 PM 35.0831 -106.0669 87° East 502 578 35,000  Level Albuquerque Center
Wed 05:24:34 PM 35.0931 -105.8819 86° East 498 573 35,000  Level Albuquerque Center
Wed 05:25:36 PM 35.1008 -105.7117 87° East 498 573 35,000  Level Albuquerque Center
Wed 05:26:38 PM 35.1100 -105.5131 87° East 499 574 35,000  Level Albuquerque Center
Wed 05:27:40 PM 35.1178 -105.3419 87° East 500 575 35,000  Level Albuquerque Center
Wed 05:28:42 PM 35.1244 -105.1683 87° East 505 581 35,000  Level Albuquerque Center
Wed 05:29:44 PM 35.1328 -104.9956 87° East 506 582 35,000  Level Albuquerque Center
Wed 05:30:46 PM 35.1400 -104.8225 87° East 506 582 35,000  Level Albuquerque Center
Wed 05:31:48 PM 35.1458 -104.6500 88° East 506 582 35,000  Level Albuquerque Center
Wed 05:32:50 PM 35.1544 -104.4806 86° East 506 582 35,000  Level Albuquerque Center
Wed 05:33:51 PM 35.1600 -104.3089 88° East 506 582 35,000  Level Albuquerque Center
Wed 05:34:53 PM 35.1678 -104.1033 87° East 506 582 35,000  Level Albuquerque Center
Wed 05:35:55 PM 35.1725 -103.9322 88° East 506 582 35,000  Level Albuquerque Center
Wed 05:36:57 PM 35.1772 -103.7683 88° East 505 581 35,000  Level Albuquerque Center
Wed 05:37:59 PM 35.1828 -103.5967 88° East 502 578 35,000  Level Albuquerque Center
Wed 05:39:01 PM 35.1894 -103.3969 88° East 502 578 35,000  Level Albuquerque Center
Wed 05:40:03 PM 35.1958 -103.2281 87° East 496 571 35,000  Level Albuquerque Center
Wed 05:41:05 PM 35.2011 -103.0589 88° East 494 568 35,000  Level Albuquerque Center
Wed 05:42:07 PM 35.2056 -102.8867 88° East 493 567 35,000  Level Albuquerque Center
Wed 05:43:08 PM 35.2108 -102.7192 88° East 495 570 35,000 195 Level Albuquerque Center
Wed 05:44:10 PM 35.2144 -102.5522 88° East 493 567 35,400 484 Climbing Albuquerque Center
Wed 05:45:12 PM 35.2197 -102.3853 88° East 493 567 36,000 290 Climbing Albuquerque Center
Wed 05:46:14 PM 35.2239 -102.2175 88° East 494 568 36,000  Level Albuquerque Center
Wed 05:47:16 PM 35.2281 -102.0161 88° East 495 570 36,000 48 Level Albuquerque Center
Wed 05:48:18 PM 35.2333 -101.8467 88° East 496 571 36,100 484 Climbing Albuquerque Center
Wed 05:49:20 PM 35.2361 -101.6781 89° East 495 570 37,000 439 Climbing Albuquerque Center
Wed 05:50:21 PM 35.2428 -101.5267 87° East 496 571 37,000  Level Albuquerque Center
Wed 05:51:23 PM 35.2525 -101.3242 87° East 496 571 37,000  Level Albuquerque Center
Wed 05:52:25 PM 35.2594 -101.1578 87° East 500 575 37,000  Level Albuquerque Center
Wed 05:53:27 PM 35.2672 -100.9914 87° East 495 570 37,000  Level Albuquerque Center
Wed 05:54:29 PM 35.3197 -100.8386 67° East 491 565 37,000  Level Albuquerque Center
Wed 05:55:31 PM 35.4131 -100.7167 47° Northeast 490 564 37,000  Level Albuquerque Center
Wed 05:56:33 PM 35.5119 -100.5906 46° Northeast 491 565 37,000  Level Albuquerque Center
Wed 05:57:35 PM 35.6056 -100.4703 46° Northeast 487 560 37,000  Level Albuquerque Center
Wed 05:58:36 PM 35.6992 -100.3514 46° Northeast 484 557 37,000  Level Albuquerque Center
Wed 05:59:38 PM 35.8125 -100.2100 45° Northeast 481 554 37,000  Level Albuquerque Center
Wed 06:00:40 PM 35.8647 -100.0572 67° East 491 565 37,000  Level Albuquerque Center
Wed 06:01:42 PM 35.8606 -99.8917 92° East 482 555 37,000  Level Albuquerque Center
Wed 06:02:44 PM 35.8439 -99.7272 97° East 483 556 37,000  Level Albuquerque Center
Wed 06:03:42 PM 35.7997 -99.5772 110° East 470 541 37,000  Level Kansas City Center
Wed 06:04:44 PM 35.7261 -99.4464 125° Southeast 467 537 37,000  Level Kansas City Center
Wed 06:05:26 PM 35.6644 -99.3450 127° Southeast 458 527 37,000  Level Fort Worth Center
Wed 06:06:26 PM 35.5892 -99.2156 126° Southeast 464 534 37,000  Level Fort Worth Center
Wed 06:07:26 PM 35.5094 -99.0939 129° Southeast 464 534 37,000  Level Fort Worth Center
Wed 06:08:26 PM 35.4297 -98.9753 129° Southeast 459 528 37,000  Level Fort Worth Center
Wed 06:09:26 PM 35.3458 -98.8542 130° Southeast 454 522 37,000  Level Fort Worth Center
Wed 06:10:26 PM 35.2658 -98.7331 129° Southeast 454 522 37,000  Level Fort Worth Center
Wed 06:11:26 PM 35.1814 -98.6125 131° Southeast 459 528 37,000  Level Fort Worth Center
Wed 06:12:26 PM 35.0969 -98.4919 131° Southeast 464 534 37,000  Level Fort Worth Center
Wed 06:13:26 PM 35.0125 -98.3769 132° Southeast 459 528 37,000  Level Fort Worth Center
Wed 06:14:26 PM 34.9278 -98.2544 130° Southeast 464 534 37,000  Level Fort Worth Center
Wed 06:15:26 PM 34.8767 -98.1069 113° Southeast 470 541 37,000  Level Fort Worth Center
Wed 06:16:26 PM 34.8794 -97.9450 89° East 450 518 37,000  Level Fort Worth Center
Wed 06:17:26 PM 34.8906 -97.7781 85° East 467 537 37,000  Level Fort Worth Center
Wed 06:18:26 PM 34.8972 -97.6136 87° East 478 550 37,000  Level Fort Worth Center
Wed 06:19:26 PM 34.9014 -97.4489 88° East 484 557 37,000  Level Fort Worth Center
Wed 06:20:26 PM 34.9097 -97.2819 86° East 489 563 37,000  Level Fort Worth Center
Wed 06:21:26 PM 34.9158 -97.1172 87° East 489 563 37,000  Level Fort Worth Center
Wed 06:22:26 PM 34.9236 -96.9553 87° East 484 557 37,000  Level Fort Worth Center
Wed 06:23:26 PM 34.9311 -96.7906 87° East 479 551 37,000  Level Fort Worth Center
Wed 06:24:26 PM 34.9367 -96.6308 88° East 479 551 37,000  Level Fort Worth Center
Wed 06:25:26 PM 34.9439 -96.4661 87° East 479 551 37,000  Level Fort Worth Center
Wed 06:26:26 PM 34.9489 -96.3067 88° East 479 551 37,000  Level Fort Worth Center
Wed 06:27:26 PM 34.9556 -96.1444 87° East 479 551 37,000  Level Fort Worth Center
Wed 06:28:26 PM 34.9622 -95.9819 87° East 479 551 37,000  Level Fort Worth Center
Wed 06:29:26 PM 34.9689 -95.8400 87° East 479 551 37,000  Level Fort Worth Center
Wed 06:31:44 PM 34.9783 -95.4561 88° East 454 522 37,000  Level Memphis Center
Wed 06:32:44 PM 34.9825 -95.2967 88° East 466 536 37,000  Level Memphis Center
Wed 06:33:44 PM 34.9869 -95.1347 88° East 471 542 37,000  Level Memphis Center
Wed 06:34:44 PM 34.9908 -94.9703 88° East 476 548 37,000  Level Memphis Center
Wed 06:35:44 PM 34.9947 -94.8083 88° East 476 548 37,000  Level Memphis Center
Wed 06:36:44 PM 34.9981 -94.6539 88° East 487 560 37,000  Level Memphis Center
Wed 06:37:44 PM 35.0014 -94.4942 88° East 492 566 37,000  Level Memphis Center
Wed 06:38:44 PM 35.0047 -94.3297 89° East 492 566 37,000  Level Memphis Center
Wed 06:39:44 PM 35.0117 -94.1703 87° East 479 551 37,000  Level Memphis Center
Wed 06:40:44 PM 35.0103 -94.0131 91° East 474 545 37,000  Level Memphis Center
Wed 06:41:44 PM 35.0147 -93.8533 88° East 474 545 37,000  Level Memphis Center
Wed 06:42:44 PM 35.0192 -93.6939 88° East 469 540 37,000  Level Memphis Center
Wed 06:43:44 PM 35.0211 -93.5342 89° East 469 540 37,000  Level Memphis Center
Wed 06:44:44 PM 35.0211 -93.3744 90° East 474 545 37,000  Level Memphis Center
Wed 06:45:44 PM 35.0228 -93.2147 89° East 474 545 37,000  Level Memphis Center
Wed 06:46:44 PM 35.0219 -93.0550 90° East 474 545 37,000  Level Memphis Center
Wed 06:47:44 PM 35.0256 -92.8928 88° East 474 545 37,000  Level Memphis Center
Wed 06:48:44 PM 35.0267 -92.7331 89° East 474 545 37,000  Level Memphis Center
Wed 06:49:44 PM 35.0275 -92.5708 90° East 474 545 37,000  Level Memphis Center
Wed 06:50:44 PM 35.0281 -92.4111 90° East 474 545 37,000  Level Memphis Center
Wed 06:51:44 PM 35.0286 -92.2514 90° East 474 545 37,000  Level Memphis Center
Wed 06:52:44 PM 35.0331 -92.0892 88° East 469 540 37,000  Level Memphis Center
Wed 06:53:44 PM 35.0308 -91.9319 91° East 469 540 37,000  Level Memphis Center
Wed 06:54:44 PM 35.0306 -91.7722 90° East 469 540 37,000  Level Memphis Center
Wed 06:55:44 PM 35.0303 -91.6125 90° East 469 540 37,000  Level Memphis Center
Wed 06:56:44 PM 35.0297 -91.4525 90° East 469 540 37,000  Level Memphis Center
Wed 06:57:44 PM 35.0311 -91.2956 89° East 464 534 37,000  Level Memphis Center
Wed 06:58:44 PM 35.0281 -91.1231 91° East 464 534 37,000  Level Memphis Center
Wed 06:59:44 PM 35.0289 -90.9631 90° East 469 540 37,000  Level Memphis Center
Wed 07:00:44 PM 35.0253 -90.8008 92° East 469 540 37,000  Level Memphis Center
Wed 07:01:44 PM 35.0258 -90.6436 90° East 464 534 37,000  Level Memphis Center
Wed 07:02:44 PM 35.0219 -90.4839 92° East 464 534 37,000  Level Memphis Center
Wed 07:03:44 PM 35.0219 -90.3267 90° East 461 531 37,000  Level Memphis Center
Wed 07:04:44 PM 35.0197 -90.1694 91° East 461 531 37,000  Level Memphis Center
Wed 07:05:44 PM 35.0214 -90.0172 89° East 456 525 37,000  Level Memphis Center
Wed 07:06:44 PM 35.0564 -89.8828 72° East 456 525 37,000  Level Memphis Center
Wed 07:07:44 PM 35.1081 -89.7403 66° East 463 533 37,000  Level Memphis Center
Wed 07:08:44 PM 35.1553 -89.5978 68° East 456 525 37,000  Level Memphis Center
Wed 07:09:44 PM 35.2106 -89.4447 66° East 451 519 37,000  Level Memphis Center
Wed 07:10:44 PM 35.2572 -89.3044 68° East 451 519 37,000  Level Memphis Center
Wed 07:11:44 PM 35.3083 -89.1639 66° East 451 519 37,000  Level Memphis Center
Wed 07:12:44 PM 35.3547 -89.0231 68° East 445 512 37,000  Level Memphis Center
Wed 07:13:44 PM 35.4053 -88.8872 65° Northeast 438 504 37,000  Level Memphis Center
Wed 07:14:44 PM 35.4456 -88.7617 68° East 444 511 37,000  Level Memphis Center
Wed 07:15:44 PM 35.4917 -88.6231 68° East 439 505 37,000  Level Memphis Center
Wed 07:16:44 PM 35.5397 -88.4842 67° East 439 505 37,000  Level Memphis Center
Wed 07:17:44 PM 35.5897 -88.3453 66° East 439 505 37,000  Level Memphis Center
Wed 07:18:44 PM 35.6353 -88.2089 68° East 439 505 37,000  Level Memphis Center
Wed 07:19:44 PM 35.6847 -88.0644 67° East 427 491 37,000  Level Memphis Center
Wed 07:20:44 PM 35.7242 -87.9456 68° East 420 483 37,000  Level Memphis Center
Wed 07:21:44 PM 35.7717 -87.8061 67° East 428 493 37,000  Level Memphis Center
Wed 07:22:44 PM 35.8164 -87.6639 69° East 433 498 37,000  Level Memphis Center
Wed 07:23:44 PM 35.8636 -87.5292 67° East 433 498 37,000  Level Memphis Center
Wed 07:24:44 PM 35.9081 -87.3867 69° East 441 507 37,000  Level Memphis Center
Wed 07:25:44 PM 35.9528 -87.2467 68° East 441 507 37,000  Level Memphis Center
Wed 07:26:44 PM 35.9992 -87.1114 67° East 436 502 37,000  Level Memphis Center
Wed 07:27:44 PM 36.0436 -86.9711 69° East 436 502 37,000  Level Memphis Center
Wed 07:28:44 PM 36.0875 -86.8331 68° East 436 502 37,000  Level Memphis Center
Wed 07:29:44 PM 36.1314 -86.6925 69° East 436 502 37,000  Level Memphis Center
Wed 07:30:44 PM 36.1772 -86.5517 68° East 436 502 37,000  Level Memphis Center
Wed 07:31:44 PM 36.2231 -86.4131 68° East 436 502 37,000  Level Memphis Center
Wed 07:32:44 PM 36.2686 -86.2744 68° East 436 502 37,000  Level Memphis Center
Wed 07:33:44 PM 36.3175 -86.1200 69° East 436 502 37,000  Level Memphis Center
Wed 07:34:44 PM 36.3625 -85.9758 69° East 436 502 37,000  Level Memphis Center
Wed 07:37:02 PM 36.4633 -85.6636 68° East 449 517 37,000  Level Indianapolis Center
Wed 07:38:04 PM 36.5106 -85.5175 68° East 453 521 37,000  Level Indianapolis Center
Wed 07:39:05 PM 36.5556 -85.3708 69° East 452 520 37,000  Level Indianapolis Center
Wed 07:40:07 PM 36.6083 -85.1994 69° East 443 510 37,000  Level Indianapolis Center
Wed 07:41:09 PM 36.6536 -85.0550 69° East 445 512 37,000  Level Indianapolis Center
Wed 07:42:11 PM 36.6983 -84.9092 69° East 449 517 37,000  Level Indianapolis Center
Wed 07:43:12 PM 36.7419 -84.7628 70° East 448 516 37,000  Level Indianapolis Center
Wed 07:44:14 PM 36.7864 -84.6158 69° East 451 519 37,000  Level Indianapolis Center
Wed 07:45:16 PM 36.8342 -84.4594 69° East 454 522 37,000  Level Indianapolis Center
Wed 07:46:17 PM 36.8778 -84.3122 70° East 453 521 37,000  Level Indianapolis Center
Wed 07:47:19 PM 36.9214 -84.1653 70° East 450 518 37,000  Level Indianapolis Center
Wed 07:48:21 PM 36.9653 -84.0197 69° East 448 516 37,000  Level Indianapolis Center
Wed 07:49:23 PM 37.0078 -83.8717 70° East 452 520 37,000  Level Indianapolis Center
Wed 07:50:24 PM 37.0597 -83.7019 69° East 449 517 37,000  Level Indianapolis Center
Wed 07:51:26 PM 37.1025 -83.5558 70° East 445 512 37,000  Level Indianapolis Center
Wed 07:52:27 PM 37.1453 -83.4094 70° East 445 512 37,000  Level Indianapolis Center
Wed 07:53:29 PM 37.1875 -83.2617 70° East 446 513 37,000  Level Indianapolis Center
Wed 07:54:31 PM 37.2303 -83.1150 70° East 444 511 37,000  Level Indianapolis Center
Wed 07:55:32 PM 37.2731 -82.9672 70° East 446 513 37,000  Level Indianapolis Center
Wed 07:56:34 PM 37.3147 -82.8206 70° East 443 510 37,000  Level Indianapolis Center
Wed 07:57:35 PM 37.3564 -82.6742 70° East 442 509 37,000  Level Indianapolis Center
Wed 07:58:37 PM 37.3981 -82.5256 71° East 450 518 37,000  Level Indianapolis Center
Wed 07:59:39 PM 37.4472 -82.3506 70° East 454 522 37,000  Level Indianapolis Center
Wed 08:00:40 PM 37.4897 -82.1989 71° East 457 526 37,000  Level Indianapolis Center
Wed 08:01:42 PM 37.5317 -82.0467 71° East 459 528 37,000  Level Indianapolis Center
Wed 08:02:43 PM 37.5736 -81.8958 71° East 458 527 37,000  Level Indianapolis Center
Wed 08:03:45 PM 37.6144 -81.7442 71° East 457 526 37,000  Level Indianapolis Center
Wed 08:04:46 PM 37.6556 -81.5953 71° East 451 519 37,000  Level Indianapolis Center
Wed 08:05:48 PM 37.6956 -81.4419 72° East 450 518 37,000  Level Indianapolis Center
Wed 08:06:18 PM 37.7175 -81.3572 72° East 454 522 37,000  Level Washington Center
Wed 08:07:18 PM 37.7561 -81.2053 72° East 449 517 37,000  Level Washington Center
Wed 08:08:19 PM 37.8022 -81.0614 68° East 449 517 37,000  Level Washington Center
Wed 08:09:20 PM 37.8497 -80.9333 65° Northeast 449 517 37,000  Level Washington Center
Wed 08:10:17 PM 37.9022 -80.7844 66° East 449 517 37,000  Level Washington Center
Wed 08:11:18 PM 37.9544 -80.6378 66° East 449 517 37,000  Level Washington Center
Wed 08:12:19 PM 38.0067 -80.4858 66° East 449 517 37,000  Level Washington Center
Wed 08:13:17 PM 38.0656 -80.3208 66° East 455 524 37,000  Level Washington Center
Wed 08:14:17 PM 38.1214 -80.1714 65° Northeast 455 524 37,000  Level Washington Center
Wed 08:15:18 PM 38.1728 -80.0239 66° East 460 529 37,000 -148 Level Washington Center
Wed 08:16:19 PM 38.2261 -79.8739 66° East 460 529 36,700 -893 Descending Washington Center
Wed 08:17:19 PM 38.2794 -79.7233 66° East 460 529 35,200 -2,237 Descending Washington Center
Wed 08:18:17 PM 38.3256 -79.5883 66° East 455 524 32,300 -2,622 Descending Washington Center
Wed 08:19:18 PM 38.3764 -79.4400 66° East 455 524 30,000 -2,115 Descending Washington Center
Wed 08:20:19 PM 38.4247 -79.2967 67° East 449 517 28,000 -992 Descending Washington Center
Wed 08:21:19 PM 38.4542 -79.1497 76° East 435 501 28,000  Level Washington Center
Wed 08:22:17 PM 38.4747 -79.0156 79° East 408 470 28,000 -900 Level Washington Center
Wed 08:23:19 PM 38.4975 -78.8733 78° East 382 440 26,200 -1,721 Descending Washington Center
Wed 08:24:19 PM 38.5175 -78.7494 78° East 369 425 24,500 -1,627 Descending Washington Center
Wed 08:25:17 PM 38.5372 -78.6281 78° East 357 411 23,000 -1,462 Descending Washington Center
Wed 08:26:18 PM 38.5550 -78.5094 79° East 350 403 21,600 -1,475 Descending Washington Center
Wed 08:27:19 PM 38.5744 -78.3906 78° East 344 396 20,000 -1,587 Descending Washington Center
Wed 08:28:19 PM 38.5936 -78.2744 78° East 338 389 18,400 -1,550 Descending Washington Center
Wed 08:29:19 PM 38.6253 -78.1667 69° East 326 375 16,900 -1,525 Descending Washington Center
Wed 08:30:17 PM 38.6586 -78.0642 67° East 320 368 15,400 -1,311 Descending Washington Center
Wed 08:31:18 PM 38.6833 -77.9825 69° East 314 361 14,300 -1,438 Descending Washington Center
Wed 08:32:18 PM 38.7231 -77.8586 68° East 308 354 12,500 -1,412 Descending Washington Center
Wed 08:33:17 PM 38.7706 -77.7725 55° Northeast 300 345 11,500 -645 Descending Washington Center
Wed 08:34:19 PM 38.8156 -77.7044 50° Northeast 280 322 11,200 -600 Descending Washington Center
Wed 08:35:17 PM 38.8606 -77.6417 47° Northeast 244 281 10,300 -1,138 Descending Washington Center
Wed 08:36:15 PM 38.9000 -77.5833 49° Northeast 215 247 9,000 -1,169 Descending Potomac TRACON
Wed 08:37:15 PM 38.9333 -77.5167 57° Northeast 216 249 8,000 -750 Descending Potomac TRACON
Wed 08:38:15 PM 38.9667 -77.4500 57° Northeast 213 245 7,500 -850 Descending Potomac TRACON
Wed 08:39:15 PM 38.9833 -77.3833 72° East 211 243 6,300 -1,200 Descending Potomac TRACON
Wed 08:40:15 PM 39.0000 -77.3167 72° East 211 243 5,100 -1,250 Descending Potomac TRACON
Wed 08:41:15 PM 38.9833 -77.2500 108° East 206 237 3,800 -1,100 Descending Potomac TRACON
Wed 08:42:15 PM 38.9667 -77.1833 108° East 190 219 2,900 -850 Descending Potomac TRACON
Wed 08:43:15 PM 38.9333 -77.1333 131° Southeast 168 193 2,100 -800 Descending Potomac TRACON
Wed 08:44:15 PM 38.9000 -77.0833 131° Southeast 142 163 1,300 -800 Descending Potomac TRACON
Wed 08:45:15 PM 38.8833 -77.0500 123° Southeast 143 165 500 -800 Descending Potomac TRACON
Wed 08:47:00 PM 38.8519 -77.0377 163° South  Level Estimated
Wed 08:54:00 PM 38.8519 -77.0377 167° South  Level Estimated

Login

Don't have an account? Register now (free) for customized features, flight alerts, and more!